الصفحة الرئيسية
METAR-TAF:

METAR-TAF

مطار :

تونس, تونس

مطار تونس قرطاج الدولي

دائرة عرض: 36-50N, خط طول: 010-14E, ارتفاع: 3 متر

مراقبة الطقس الحالي

تاريخ ووقت الإصدار 24 دقيقة قبل الساعة 08:00UTC
ريح 8 عقدة من الجنوب الغربي
درجة الحرارة 9°درجة مئوية
الرطوبة 87%
ضغط 1000 hPa
الرؤية 10 كم أو أكثر
غيوم متفرقة على ارتفاع 2600 قدم
غيوم متفرقة على ارتفاع 4000 قدم

METAR: DTTA 220800Z 23008KT 9999 SCT026 SCT040 09/07 Q1000 NOSIG

زمن: 09:24 (08:24 UTC)

توقعات

تاريخ ووقت الإصدار 3ساعات و 22 دقيقة قبل الساعة 05:02UTC
التوقعات صالحة من22 الساعة 06 UTC إلى 23 الساعة 06 UTC
ريح 10 عقدة من الغرب/الشمال الغربي
الرؤية 10 كم أو أكثر
غيوم قليلة على ارتفاع 2600 قدم
نظرية الاحتمالات 30% :
مؤقت
من 22 الساعة 06 UTC إلى 22 الساعة 18 UTC
الرؤية: 5000 متر
غيوم قليلة على ارتفاع 2000 قدم, مزن ركامية عمودية.
غيوم قليلة على ارتفاع 2600 قدم, مزنة ركامية.
عاصفة رعدية, مطر خفيف

TAF: DTTA 220502Z 2206/2306 30010KT 9999 FEW026 PROB30 TEMPO 2206/2218 5000 -TSRA FEW020TCU FEW026CB

أرصاد الطقس والتوقعات من أكثر من 4000 مطار (تقارير الطقس للمطار METAR والتنبؤ بالطقس بالمطارTAF).

المحطات المتاحة هي النقط الصفراء والحمراء على الخريطة.

حرك المؤشر فوق النقطة لمعرفة اسم المحطة.

ثم انقر لمعرفة أرصاد وتوقعات الطقس.

لتغيير الخارطة: اضغط على الأزرار الخضراء مع رمز الصليب الأسود للتكبير. على الزر الأخضر مع شرطة للتصغير، أو على الأسهم الخضراء للخرائط المجاورة.


METAR-TAF: